Wesleyville, Pennsylvania
Current Conditions -  °F | °C
As of 7:51 AM on Monday 22 Dec 2014 (Local Time) from KERI Reporting Station
Clear Clear  
Wind Chill: 19°   Ceiling: Unl
Heat Index: 28°   Visibility: 10mi
Dew Point: 20°   Wind: 9mph
Humidity: 72%   Direction: 150°SSE
Pressure: 30.14"   Gusts: NA
Location:  42.1111°N, 79.9606°W
Report Text: KERI 221251Z 15008KT 10SM CLR M02/M07 A3014 RMK AO2 SLP216 T10221067
Loading
Personal Weather Stations






























Interactive Weather Map New forecast layout! Learn more

10-Day Weather Forecast

Advertisements
Track Severe Weather on mobile